Columbus, Georgia
Current Conditions -  °F | °C
As of 10:25 AM on Monday 24 Nov 2014 (Local Time) from KCSG Reporting Station
Scattered Clouds Scattered Clouds  
Wind Chill: 72°   Ceiling: Unl
Heat Index: 72°   Visibility: 10mi
Dew Point: 63°   Wind: 7mph
Humidity: 73%   Direction: 280°W
Pressure: 29.83"   Gusts: NA
Location:  32.51°N, 84.93°W
Report Text: KCSG 241525Z 28006KT 10SM SCT021 22/17 A2983 RMK AO2
Loading
Personal Weather Stations






























Interactive Weather Map New forecast layout! Learn more

10-Day Weather Forecast

Advertisements
Track Severe Weather on mobile